Time;durP1;ratioP1;P1;durP2;ratioP2;P2;SDS_P1;SDS_P2;PMS_P1;PMS_P2;Temp;Humidity;BMP_temperature;BMP_pressure;BME280_temperature;BME280_humidity;BME280_pressure;Samples;Min_cycle;Max_cycle;Signal;HPM_P1;HPM_P2
2023/10/10 00:02:18;;;;;;;10.90;3.30;;;;;;;5.53;71.59;100987.27;106622;1257;60454;-82
2023/10/10 00:04:47;;;;;;;5.10;2.50;;;;;;;5.51;71.46;100988.14;107667;1252;73817;-84
2023/10/10 00:07:15;;;;;;;5.40;2.70;;;;;;;5.48;71.82;100979.27;106521;1256;68420;-84
2023/10/10 00:09:45;;;;;;;5.90;2.40;;;;;;;5.47;71.99;100979.91;106473;1257;72490;-84
2023/10/10 00:12:18;;;;;;;4.50;2.60;;;;;;;5.46;72.01;100979.55;106486;1254;60562;-82
2023/10/10 00:14:50;;;;;;;4.90;2.60;;;;;;;5.43;71.80;100978.88;106733;1256;60480;-84
2023/10/10 00:17:20;;;;;;;6.80;2.30;;;;;;;5.39;71.88;100976.70;106790;1254;73802;-84
2023/10/10 00:19:52;;;;;;;6.80;2.10;;;;;;;5.39;71.97;100973.25;107402;1254;67460;-84
2023/10/10 00:22:33;;;;;;;5.40;2.70;;;;;;;5.39;71.87;100979.95;106474;1259;73157;-84
2023/10/10 00:25:04;;;;;;;4.50;2.00;;;;;;;5.32;72.22;100976.31;106508;1254;60453;-82
2023/10/10 00:27:33;;;;;;;6.10;2.30;;;;;;;5.27;72.53;100973.69;106619;1256;60525;-82
2023/10/10 00:30:13;;;;;;;4.90;2.20;;;;;;;5.26;72.60;100973.35;106255;1266;73857;-84
2023/10/10 00:32:43;;;;;;;4.20;2.20;;;;;;;5.27;72.18;100971.63;107689;1257;67253;-84
2023/10/10 00:35:12;;;;;;;5.50;1.90;;;;;;;5.28;72.10;100970.91;106464;1260;71511;-82
2023/10/10 00:37:43;;;;;;;6.50;2.40;;;;;;;5.26;72.44;100973.66;106470;1251;60445;-82
2023/10/10 00:40:17;;;;;;;5.10;2.10;;;;;;;5.25;72.63;100966.48;106367;1254;60531;-84
2023/10/10 00:42:48;;;;;;;3.10;1.60;;;;;;;5.24;72.67;100965.17;106295;1251;72559;-82
2023/10/10 00:45:16;;;;;;;5.70;2.00;;;;;;;5.22;72.32;100964.66;106487;1258;67633;-82
2023/10/10 00:47:50;;;;;;;5.90;2.30;;;;;;;5.18;72.74;100969.84;107389;1253;71396;-82
2023/10/10 00:50:19;;;;;;;4.60;2.10;;;;;;;5.17;73.92;100966.90;106389;1252;60685;-84
2023/10/10 00:52:50;;;;;;;6.80;2.30;;;;;;;5.21;74.15;100965.34;106378;1257;60454;-82
2023/10/10 00:55:24;;;;;;;5.10;2.00;;;;;;;5.23;74.04;100969.65;106675;1253;73906;-81
2023/10/10 00:57:58;;;;;;;5.90;2.30;;;;;;;5.23;74.27;100966.86;106474;1254;68660;-84
2023/10/10 01:00:30;;;;;;;4.10;2.00;;;;;;;5.21;74.23;100969.73;106524;1255;72717;-82
2023/10/10 01:03:20;;;;;;;3.90;2.00;;;;;;;5.18;74.35;100970.30;106421;1251;60316;-84
2023/10/10 01:05:55;;;;;;;5.60;2.40;;;;;;;5.15;74.67;100976.27;106484;1256;60559;-85
2023/10/10 01:08:31;;;;;;;6.10;1.90;;;;;;;5.13;74.65;100973.00;106606;1263;73968;-85
2023/10/10 01:11:03;;;;;;;6.20;2.20;;;;;;;5.12;74.47;100973.84;106458;1258;68339;-82
2023/10/10 01:13:31;;;;;;;4.00;2.40;;;;;;;5.11;73.81;100971.98;107279;1253;72754;-82
2023/10/10 01:16:04;;;;;;;6.60;2.10;;;;;;;5.06;73.26;100973.02;106400;1251;60476;-82
2023/10/10 01:18:51;;;;;;;5.50;2.50;;;;;;;4.95;73.68;100976.27;106598;1258;60578;-82
2023/10/10 01:21:30;;;;;;;4.10;1.70;;;;;;;4.91;73.92;100974.36;106385;1260;73841;-84
2023/10/10 01:24:11;;;;;;;3.50;1.90;;;;;;;4.93;73.95;100975.17;106351;1257;67584;-84
2023/10/10 01:26:44;;;;;;;6.40;2.30;;;;;;;4.93;74.10;100976.90;107156;1251;76169;-84
2023/10/10 01:31:52;;;;;;;3.20;1.90;;;;;;;4.86;74.45;100983.38;106374;1257;60627;-82
2023/10/10 01:37:13;;;;;;;5.80;2.30;;;;;;;4.80;74.87;100978.48;106636;1251;68791;-82
2023/10/10 01:39:54;;;;;;;5.40;2.10;;;;;;;4.80;74.90;100980.44;107191;1254;71194;-85
2023/10/10 01:42:31;;;;;;;6.00;1.90;;;;;;;4.77;75.08;100982.90;106399;1251;60923;-85
2023/10/10 01:45:07;;;;;;;4.10;1.90;;;;;;;4.73;74.97;100985.91;106546;1251;60377;-82
2023/10/10 01:47:39;;;;;;;5.90;2.30;;;;;;;4.72;75.11;100982.09;106625;1254;73187;-82
2023/10/10 01:50:10;;;;;;;4.60;2.20;;;;;;;4.72;75.30;100976.46;106603;1254;68334;-85
2023/10/10 01:52:41;;;;;;;4.20;1.90;;;;;;;4.73;75.51;100982.70;106534;1254;73141;-82
2023/10/10 01:55:11;;;;;;;6.00;2.30;;;;;;;4.72;75.41;100982.45;107197;1254;60605;-83
2023/10/10 01:57:39;;;;;;;6.50;2.30;;;;;;;4.70;75.43;100986.40;106642;1256;60447;-84
2023/10/10 02:00:26;;;;;;;5.20;1.80;;;;;;;4.67;75.52;100988.03;106449;1254;74323;-84
2023/10/10 02:02:56;;;;;;;3.60;2.10;;;;;;;4.63;75.83;100992.73;106662;1257;67552;-82
2023/10/10 02:08:09;;;;;;;6.20;2.50;;;;;;;4.64;76.25;100993.71;106310;1259;60454;-81
2023/10/10 02:10:45;;;;;;;5.00;2.20;;;;;;;4.63;76.72;100993.28;106719;1251;60411;-85
2023/10/10 02:13:16;;;;;;;3.70;2.20;;;;;;;4.67;76.87;100988.33;106512;1251;72575;-84
2023/10/10 02:15:44;;;;;;;5.80;2.00;;;;;;;4.68;76.99;100989.27;106535;1251;67594;-82
2023/10/10 02:18:12;;;;;;;3.40;2.10;;;;;;;4.70;76.93;100988.40;107475;1254;72746;-85
2023/10/10 02:23:31;;;;;;;5.60;2.20;;;;;;;4.66;75.57;100988.66;106503;1254;60531;-82
2023/10/10 02:29:33;;;;;;;8.90;2.40;;;;;;;4.59;75.45;100989.61;106214;1253;68509;-82
2023/10/10 02:32:18;;;;;;;4.70;2.10;;;;;;;4.60;75.45;100992.64;108667;1251;71448;-85
2023/10/10 02:34:55;;;;;;;6.50;2.30;;;;;;;4.57;75.35;100994.85;106469;1251;60582;-85
2023/10/10 02:37:41;;;;;;;4.90;2.30;;;;;;;4.54;75.58;100993.64;106611;1255;60375;-84
2023/10/10 02:40:15;;;;;;;8.50;2.50;;;;;;;4.52;75.83;100994.23;106346;1254;71949;-82
2023/10/10 02:43:17;;;;;;;7.30;2.50;;;;;;;4.47;76.13;100997.58;106537;1252;67469;-84
2023/10/10 02:45:44;;;;;;;3.90;1.90;;;;;;;4.45;76.15;101000.06;107199;1254;72740;-84
2023/10/10 02:48:20;;;;;;;5.50;2.10;;;;;;;4.43;76.22;100998.38;106453;1257;60563;-82
2023/10/10 02:50:51;;;;;;;7.00;2.70;;;;;;;4.43;76.27;101000.52;106680;1259;60344;-85
2023/10/10 02:53:19;;;;;;;4.90;2.20;;;;;;;4.42;76.28;101004.64;106406;1254;72742;-84
2023/10/10 02:56:01;;;;;;;7.20;2.40;;;;;;;4.46;76.16;101003.73;106605;1254;68413;-85
2023/10/10 02:58:38;;;;;;;7.00;2.20;;;;;;;4.44;76.82;100997.81;107134;1252;72627;-84
2023/10/10 03:01:18;;;;;;;5.00;2.20;;;;;;;4.47;77.37;100998.99;106536;1254;60489;-85
2023/10/10 03:03:48;;;;;;;4.90;2.20;;;;;;;4.48;77.00;100993.61;106588;1254;60474;-82
2023/10/10 03:06:16;;;;;;;4.90;2.10;;;;;;;4.45;75.67;100993.70;106581;1253;73911;-81
2023/10/10 03:12:05;;;;;;;6.10;2.30;;;;;;;4.38;75.78;100993.31;103297;1290;599554;-82
2023/10/10 03:14:34;;;;;;;5.40;2.30;;;;;;;4.37;76.08;100992.41;106204;1261;60968;-81
2023/10/10 03:17:20;;;;;;;6.70;2.40;;;;;;;4.39;75.92;100997.55;106220;1260;60000;-86
2023/10/10 03:19:50;;;;;;;10.30;2.80;;;;;;;4.37;76.66;100998.78;106056;1259;72322;-81
2023/10/10 03:22:30;;;;;;;6.00;2.50;;;;;;;4.36;76.91;101005.33;106092;1259;67562;-81
2023/10/10 03:27:54;;;;;;;6.70;2.80;;;;;;;4.37;76.61;101004.36;106132;1261;60894;-81
2023/10/10 03:30:49;;;;;;;8.20;3.40;;;;;;;4.35;76.48;100999.39;106138;1257;59202;-86
2023/10/10 03:36:23;;;;;;;10.30;4.20;;;;;;;4.33;75.45;101001.31;106132;1257;67754;-81
2023/10/10 05:24:43;;;;;;;5.80;3.00;;;;;;;9.34;88.59;101027.17;106492;1253;71666;-82
2023/10/10 05:27:29;;;;;;;5.60;2.70;;;;;;;9.54;88.21;101029.40;106421;1259;68464;-82
2023/10/10 05:30:00;;;;;;;6.50;3.30;;;;;;;9.75;87.53;101035.98;106378;1254;71103;-81
2023/10/10 05:32:32;;;;;;;8.30;2.70;;;;;;;9.96;86.65;101042.86;106191;1254;59702;-83
2023/10/10 05:35:11;;;;;;;6.10;2.40;;;;;;;10.15;86.00;101047.33;106398;1255;59610;-82
2023/10/10 05:37:40;;;;;;;4.70;2.70;;;;;;;10.29;85.58;101047.02;106818;1253;74246;-82
2023/10/10 05:40:09;;;;;;;7.30;2.80;;;;;;;10.49;84.79;101051.90;106314;1259;68261;-82
2023/10/10 05:42:39;;;;;;;8.40;2.70;;;;;;;10.69;82.62;101057.91;106313;1254;71375;-82
2023/10/10 05:45:08;;;;;;;7.50;3.50;;;;;;;10.85;80.11;101058.21;106434;1260;59740;-88
2023/10/10 05:47:37;;;;;;;5.10;2.70;;;;;;;11.03;76.99;101057.52;106413;1254;59979;-87
2023/10/10 05:50:10;;;;;;;7.50;3.00;;;;;;;11.22;74.46;101059.95;106652;1258;73062;-89
2023/10/10 05:52:45;;;;;;;6.50;3.20;;;;;;;11.38;71.98;101063.65;106533;1254;67539;-89
2023/10/10 05:55:13;;;;;;;8.90;3.20;;;;;;;11.52;69.29;101064.51;106257;1260;72471;-83
2023/10/10 05:57:41;;;;;;;9.00;3.90;;;;;;;11.63;66.55;101067.70;106389;1254;61127;-88
2023/10/10 06:00:14;;;;;;;6.20;3.20;;;;;;;11.74;63.91;101059.66;106131;1254;60107;-89
2023/10/10 06:02:42;;;;;;;6.80;3.60;;;;;;;11.81;61.93;101062.58;107265;1256;73100;-87
2023/10/10 06:05:10;;;;;;;8.80;3.90;;;;;;;11.86;60.90;101065.17;106425;1254;68340;-88
2023/10/10 06:07:43;;;;;;;9.30;3.80;;;;;;;11.91;59.88;101061.14;106181;1254;72749;-88
2023/10/10 06:10:18;;;;;;;9.00;4.00;;;;;;;11.99;58.93;101062.79;106301;1254;60845;-88
2023/10/10 06:12:52;;;;;;;9.10;3.60;;;;;;;12.10;57.99;101064.20;106431;1254;59515;-82
2023/10/10 06:15:20;;;;;;;8.10;3.90;;;;;;;12.20;57.66;101065.84;106395;1253;73021;-82
2023/10/10 06:18:18;;;;;;;9.00;4.30;;;;;;;12.32;57.08;101062.60;106813;1258;68854;-83
2023/10/10 06:20:47;;;;;;;12.60;4.00;;;;;;;12.52;56.58;101065.09;106364;1254;70888;-91
2023/10/10 06:23:20;;;;;;;10.80;4.20;;;;;;;12.66;55.50;101065.82;106222;1258;59669;-83
2023/10/10 06:25:49;;;;;;;10.80;4.30;;;;;;;12.82;54.67;101068.08;106422;1255;60053;-83
2023/10/10 06:28:25;;;;;;;6.50;3.60;;;;;;;12.93;54.42;101071.23;106235;1262;72911;-82
2023/10/10 06:30:54;;;;;;;11.00;3.60;;;;;;;13.05;53.04;101073.09;106334;1253;68354;-89
2023/10/10 06:33:30;;;;;;;9.90;4.10;;;;;;;13.12;52.08;101072.74;107056;1253;73149;-90
2023/10/10 06:36:35;;;;;;;10.00;3.70;;;;;;;13.17;50.97;101071.50;106449;1262;59567;-85
2023/10/10 06:39:32;;;;;;;7.10;3.80;;;;;;;13.28;50.60;101068.18;106702;1255;59996;-93
2023/10/10 06:42:08;;;;;;;10.10;4.00;;;;;;;13.35;49.91;101063.11;106821;1254;75152;-89
2023/10/10 06:44:40;;;;;;;7.50;3.70;;;;;;;13.44;49.38;101062.34;106602;1259;68517;-90
2023/10/10 06:47:11;;;;;;;9.60;3.80;;;;;;;13.53;49.02;101060.59;106844;1254;72688;-83
2023/10/10 06:49:43;;;;;;;;;;;;;;;13.63;48.84;101059.64;106504;1254;59637;-90
2023/10/10 06:52:18;;;;;;;7.60;3.80;;;;;;;13.76;48.29;101055.80;106462;1254;59861;-88
2023/10/10 06:54:56;;;;;;;9.50;4.10;;;;;;;13.83;47.70;101057.18;106383;1259;73093;-82
2023/10/10 06:57:41;;;;;;;12.60;5.10;;;;;;;13.90;47.37;101052.95;106438;1254;68516;-82
2023/10/10 07:00:20;;;;;;;12.00;4.80;;;;;;;14.08;46.99;101057.36;106443;1260;71403;-90
2023/10/10 07:02:52;;;;;;;12.60;4.60;;;;;;;14.20;46.68;101055.67;106976;1258;59115;-91
2023/10/10 07:05:20;;;;;;;10.70;4.70;;;;;;;14.34;46.88;101052.83;106428;1254;59512;-83
2023/10/10 07:07:58;;;;;;;12.30;4.70;;;;;;;14.53;46.31;101050.30;106130;1254;72731;-83
2023/10/10 07:10:33;;;;;;;12.80;4.80;;;;;;;14.71;45.95;101045.55;106408;1259;67095;-83
2023/10/10 07:13:12;;;;;;;14.50;5.40;;;;;;;14.87;44.83;101044.15;106431;1257;72638;-91
2023/10/10 07:15:41;;;;;;;11.20;4.50;;;;;;;14.97;44.35;101039.70;106447;1254;59750;-83
2023/10/10 07:18:14;;;;;;;10.30;4.60;;;;;;;15.06;43.51;101036.37;106545;1257;59969;-90
2023/10/10 07:24:02;;;;;;;10.10;3.60;;;;;;;15.41;42.88;101037.49;106257;1254;68425;-90
2023/10/10 07:26:41;;;;;;;9.10;3.20;;;;;;;15.64;42.58;101037.77;106466;1260;73155;-91
2023/10/10 07:32:16;;;;;;;8.30;3.60;;;;;;;15.98;41.17;101029.70;107249;1254;59557;-90
2023/10/10 07:34:50;;;;;;;6.20;3.40;;;;;;;16.15;40.66;101028.35;106660;1257;73033;-92
2023/10/10 07:37:18;;;;;;;6.70;3.40;;;;;;;16.31;40.20;101029.33;106579;1254;68385;-91
2023/10/10 07:39:55;;;;;;;6.40;2.80;;;;;;;16.44;39.59;101029.53;106482;1257;72695;-83
2023/10/10 07:42:27;;;;;;;8.10;3.30;;;;;;;16.54;39.35;101026.15;106447;1259;60457;-83
2023/10/10 07:44:55;;;;;;;5.90;2.50;;;;;;;16.68;39.06;101030.84;106503;1254;60629;-83
2023/10/10 07:47:26;;;;;;;9.70;3.00;;;;;;;16.82;38.84;101032.25;106515;1257;72636;-89
2023/10/10 07:50:08;;;;;;;5.00;2.50;;;;;;;16.95;38.26;101032.20;106423;1254;69804;-89
2023/10/10 07:52:39;;;;;;;6.20;2.90;;;;;;;17.02;38.03;101031.54;106501;1257;73516;-83
2023/10/10 07:55:07;;;;;;;6.40;2.60;;;;;;;17.09;37.79;101032.30;106448;1259;60546;-88
2023/10/10 08:00:27;;;;;;;3.20;2.30;;;;;;;17.19;37.74;101036.81;106500;1257;71911;-83
2023/10/10 08:02:55;;;;;;;5.00;2.10;;;;;;;17.36;37.41;101035.27;106781;1260;66472;-90
2023/10/10 08:05:25;;;;;;;7.30;2.40;;;;;;;17.48;37.01;101035.23;106486;1257;74538;-84
2023/10/10 08:07:53;;;;;;;3.20;2.00;;;;;;;17.56;36.69;101031.17;106320;1254;60539;-83
2023/10/10 08:10:31;;;;;;;6.70;2.70;;;;;;;17.65;35.72;101035.06;106568;1253;62203;-83
2023/10/10 08:13:00;;;;;;;5.80;2.50;;;;;;;17.68;35.64;101036.54;106944;1254;73751;-90
2023/10/10 08:15:31;;;;;;;4.10;1.90;;;;;;;17.72;35.43;101038.02;107247;1253;69648;-92
2023/10/10 08:17:59;;;;;;;3.70;1.90;;;;;;;17.76;34.99;101037.94;106476;1253;71381;-84
2023/10/10 08:23:11;;;;;;;4.30;1.60;;;;;;;17.88;35.26;101035.09;106557;1259;60519;-84
2023/10/10 08:25:43;;;;;;;4.00;1.60;;;;;;;18.02;34.96;101033.11;106473;1257;73776;-90
2023/10/10 08:28:11;;;;;;;4.40;1.90;;;;;;;18.11;34.45;101031.41;106499;1259;68860;-82
2023/10/10 08:30:39;;;;;;;6.00;1.50;;;;;;;18.17;34.30;101029.33;106587;1257;72394;-83
2023/10/10 08:33:07;;;;;;;3.80;1.70;;;;;;;18.23;34.43;101032.74;106477;1259;60495;-83
2023/10/10 08:35:38;;;;;;;6.00;1.90;;;;;;;18.39;34.07;101030.77;106582;1256;60437;-83
2023/10/10 08:38:13;;;;;;;6.40;2.00;;;;;;;18.45;33.51;101030.38;106609;1258;72608;-83
2023/10/10 08:40:41;;;;;;;4.60;1.90;;;;;;;18.38;33.57;101034.12;106478;1255;68356;-88
2023/10/10 08:43:12;;;;;;;4.80;1.90;;;;;;;18.26;33.58;101026.42;106509;1254;71050;-91
2023/10/10 08:46:12;;;;;;;4.80;1.80;;;;;;;18.22;33.92;101019.71;106388;1260;60549;-84
2023/10/10 08:48:40;;;;;;;4.60;1.90;;;;;;;18.27;33.83;101019.33;106521;1254;62638;-82
2023/10/10 08:51:18;;;;;;;6.40;1.90;;;;;;;18.27;33.49;101016.16;106465;1254;72576;-91
2023/10/10 08:53:46;;;;;;;5.40;1.70;;;;;;;18.30;33.67;101017.05;106475;1254;68348;-90
2023/10/10 08:56:15;;;;;;;4.60;2.10;;;;;;;18.38;33.42;101021.29;106624;1258;70627;-89
2023/10/10 08:58:46;;;;;;;4.30;1.70;;;;;;;18.47;33.40;101022.55;106802;1253;60432;-91
2023/10/10 09:01:16;;;;;;;5.10;1.90;;;;;;;18.58;32.86;101023.30;106522;1260;60435;-89
2023/10/10 09:03:45;;;;;;;2.90;1.60;;;;;;;18.58;32.54;101026.49;106429;1259;74622;-83
2023/10/10 09:06:19;;;;;;;4.30;1.80;;;;;;;18.60;31.91;101026.60;106581;1255;69323;-90
2023/10/10 09:08:50;;;;;;;4.10;2.30;;;;;;;18.61;31.67;101022.30;106535;1258;71467;-92
2023/10/10 09:11:20;;;;;;;8.00;2.70;;;;;;;18.63;31.60;101023.26;106432;1259;60541;-83
2023/10/10 09:13:52;;;;;;;3.40;1.70;;;;;;;18.69;31.78;101021.98;108138;1257;62902;-87
2023/10/10 09:16:44;;;;;;;7.20;1.50;;;;;;;18.75;31.90;101018.80;106759;1257;73907;-83
2023/10/10 09:19:14;;;;;;;4.70;3.00;;;;;;;18.77;31.66;101019.33;106341;1263;68468;-91
2023/10/10 09:21:46;;;;;;;2.70;1.30;;;;;;;18.82;31.40;101024.73;106546;1257;72724;-84
2023/10/10 09:24:26;;;;;;;3.00;1.40;;;;;;;18.89;30.39;101028.20;106541;1260;60376;-84
2023/10/10 09:27:10;;;;;;;2.60;1.50;;;;;;;18.84;30.18;101026.33;106687;1254;60524;-85
2023/10/10 09:29:47;;;;;;;8.80;2.00;;;;;;;18.77;30.27;101026.65;106336;1254;74857;-84
2023/10/10 09:32:23;;;;;;;3.30;1.50;;;;;;;18.78;30.69;101026.61;106453;1258;68385;-84
2023/10/10 09:34:53;;;;;;;3.50;1.60;;;;;;;18.92;30.33;101018.92;106612;1257;72625;-88
2023/10/10 09:37:29;;;;;;;2.30;1.40;;;;;;;19.03;30.11;101011.33;106521;1254;60447;-90
2023/10/10 09:40:07;;;;;;;3.50;1.50;;;;;;;19.12;29.64;101010.50;106368;1254;61088;-90
2023/10/10 09:51:08;;;;;;;4.00;1.70;;;;;;;19.40;29.19;101016.36;106610;1264;61277;-83
2023/10/10 09:53:36;;;;;;;3.20;1.60;;;;;;;19.22;29.42;101011.67;106555;1257;60527;-88
2023/10/10 09:56:08;;;;;;;3.20;1.70;;;;;;;19.04;29.90;101006.86;106374;1258;73772;-89
2023/10/10 09:58:42;;;;;;;;;;;;;;;19.06;30.21;101001.95;106302;1254;67732;-82
2023/10/10 10:01:22;;;;;;;3.80;1.50;;;;;;;19.10;30.33;101009.29;107340;1261;72630;-83
2023/10/10 10:03:55;;;;;;;13.80;2.50;;;;;;;19.11;30.33;101000.00;108129;1256;59911;-89
2023/10/10 10:06:37;;;;;;;3.80;1.80;;;;;;;19.14;30.03;101001.60;106749;1258;60460;-83
2023/10/10 10:09:32;;;;;;;3.10;1.70;;;;;;;19.10;30.52;100999.61;106768;1254;73956;-91
2023/10/10 10:12:31;;;;;;;3.90;2.00;;;;;;;19.14;30.53;100997.88;106828;1257;67395;-83
2023/10/10 10:15:20;;;;;;;4.70;2.20;;;;;;;19.18;30.69;101001.24;106611;1256;73652;-90
2023/10/10 10:18:26;;;;;;;10.30;4.40;;;;;;;19.27;30.52;100998.85;106701;1256;60546;-84
2023/10/10 10:23:56;;;;;;;5.40;2.20;;;;;;;19.47;30.47;100987.80;106465;1256;75741;-92
2023/10/10 10:26:32;;;;;;;4.90;1.90;;;;;;;19.59;30.54;100987.31;106396;1254;68377;-90
2023/10/10 10:29:15;;;;;;;3.10;1.80;;;;;;;19.81;30.52;100980.75;106279;1257;72612;-84
2023/10/10 10:31:51;;;;;;;4.90;2.30;;;;;;;19.96;29.97;100976.21;107066;1254;60425;-89
2023/10/10 10:37:20;;;;;;;3.80;1.80;;;;;;;20.05;29.44;100979.36;106253;1260;74396;-92
2023/10/10 10:42:37;;;;;;;2.00;1.40;;;;;;;19.87;29.76;100986.90;106455;1258;71114;-93
2023/10/10 10:45:41;;;;;;;3.00;1.80;;;;;;;19.80;30.02;100990.05;106857;1254;60645;-94
